Time;durP1;ratioP1;P1;durP2;ratioP2;P2;SDS_P1;SDS_P2;PMS_P1;PMS_P2;Temp;Humidity;BMP_temperature;BMP_pressure;BME280_temperature;BME280_humidity;BME280_pressure;Samples;Min_cycle;Max_cycle;Signal;HPM_P1;HPM_P2
2022/09/15 00:00:16;;;;;;;6.78;2.03;;;14.90;99.90;;;;;;5066719;28;20549;-74
2022/09/15 00:02:43;;;;;;;5.45;1.65;;;14.90;99.90;;;;;;5067356;28;20051;-74
2022/09/15 00:05:09;;;;;;;6.10;1.60;;;14.90;99.90;;;;;;5066963;28;20024;-74
2022/09/15 00:07:35;;;;;;;7.82;2.03;;;14.90;99.90;;;;;;5062507;28;20021;-73
2022/09/15 00:10:02;;;;;;;7.80;1.80;;;14.90;99.90;;;;;;5067846;28;20401;-73
2022/09/15 00:12:28;;;;;;;4.05;1.48;;;14.90;99.90;;;;;;5068034;28;20037;-73
2022/09/15 00:14:53;;;;;;;6.22;1.95;;;14.90;99.90;;;;;;5067090;28;20032;-73
2022/09/15 00:17:19;;;;;;;5.35;1.88;;;15.00;99.90;;;;;;5063153;28;20071;-74
2022/09/15 00:19:46;;;;;;;5.72;1.58;;;14.90;99.90;;;;;;5063371;28;20185;-73
2022/09/15 00:22:12;;;;;;;4.35;1.55;;;15.00;99.90;;;;;;5065579;28;20037;-73
2022/09/15 00:24:38;;;;;;;4.68;1.70;;;14.90;99.90;;;;;;5067504;28;20032;-73
2022/09/15 00:27:03;;;;;;;8.25;1.80;;;15.00;99.90;;;;;;5066477;28;20025;-74
2022/09/15 00:29:29;;;;;;;4.75;1.50;;;15.00;99.90;;;;;;5065222;28;20598;-74
2022/09/15 00:31:55;;;;;;;6.13;1.60;;;14.90;99.90;;;;;;5061597;28;20044;-74
2022/09/15 00:34:21;;;;;;;6.72;1.35;;;14.90;99.90;;;;;;5064749;28;20573;-73
2022/09/15 00:36:46;;;;;;;5.00;1.48;;;14.90;99.90;;;;;;5063254;28;20099;-74
2022/09/15 00:39:12;;;;;;;5.10;1.50;;;14.90;99.90;;;;;;5064510;28;20153;-74
2022/09/15 00:41:39;;;;;;;4.00;1.30;;;14.90;99.90;;;;;;5048655;28;20033;-73
2022/09/15 00:44:51;;;;;;;4.22;1.70;;;14.90;99.90;;;;;;5067828;28;20511;-73
2022/09/15 00:47:20;;;;;;;3.65;1.60;;;14.90;99.90;;;;;;5059638;28;20040;-74
2022/09/15 00:49:49;;;;;;;3.85;1.75;;;14.90;99.90;;;;;;5064975;28;20093;-73
2022/09/15 00:52:21;;;;;;;4.47;1.60;;;14.90;99.90;;;;;;5067666;28;20025;-73
2022/09/15 00:54:50;;;;;;;3.30;1.38;;;14.90;99.90;;;;;;5064734;28;20020;-72
2022/09/15 00:57:42;;;;;;;5.35;1.25;;;14.90;99.90;;;;;;5066246;28;20036;-74
2022/09/15 01:00:12;;;;;;;3.42;1.30;;;14.90;99.90;;;;;;5056282;28;20036;-74
2022/09/15 01:02:39;;;;;;;2.78;1.25;;;14.90;99.90;;;;;;5060233;28;20127;-73
2022/09/15 01:05:09;;;;;;;6.88;1.88;;;14.90;99.90;;;;;;5060949;28;20032;-74
2022/09/15 01:07:40;;;;;;;2.83;1.33;;;14.90;99.90;;;;;;5062232;28;20029;-74
2022/09/15 01:10:22;;;;;;;2.88;1.50;;;14.90;99.90;;;;;;5063717;28;20047;-73
2022/09/15 01:12:47;;;;;;;3.03;1.33;;;14.90;99.90;;;;;;5066078;28;20025;-74
2022/09/15 01:15:14;;;;;;;7.55;1.60;;;14.90;99.90;;;;;;5068330;28;20028;-74
2022/09/15 01:18:04;;;;;;;4.72;1.40;;;14.90;99.90;;;;;;5062798;28;20174;-73
2022/09/15 01:21:00;;;;;;;5.80;1.48;;;14.90;99.90;;;;;;5065721;28;20025;-73
2022/09/15 01:24:10;;;;;;;6.15;1.58;;;15.00;99.90;;;;;;5065922;28;20021;-73
2022/09/15 01:26:45;;;;;;;3.85;1.80;;;14.90;99.90;;;;;;5045548;28;20041;-73
2022/09/15 01:29:48;;;;;;;4.85;1.60;;;14.90;99.90;;;;;;5066174;28;20025;-73
2022/09/15 01:35:23;;;;;;;7.25;1.50;;;14.90;99.90;;;;;;5064235;28;20047;-73
2022/09/15 01:37:57;;;;;;;7.45;1.90;;;14.90;99.90;;;;;;5065390;28;20027;-73
2022/09/15 01:40:25;;;;;;;6.63;1.52;;;14.90;99.90;;;;;;5063879;28;20257;-73
2022/09/15 01:42:54;;;;;;;8.90;1.90;;;14.90;99.90;;;;;;5067856;28;20021;-73
2022/09/15 01:45:28;;;;;;;6.22;1.70;;;14.90;99.90;;;;;;5063555;28;20073;-73
2022/09/15 01:47:55;;;;;;;6.70;1.73;;;14.90;99.90;;;;;;5066409;28;20051;-73
2022/09/15 01:50:32;;;;;;;4.47;1.50;;;14.90;99.90;;;;;;5062707;28;20039;-73
2022/09/15 01:53:01;;;;;;;5.10;1.52;;;14.90;99.90;;;;;;5068236;28;20044;-74
2022/09/15 01:55:37;;;;;;;5.82;2.05;;;14.90;99.90;;;;;;5067825;28;20036;-74
2022/09/15 01:58:03;;;;;;;4.47;1.58;;;14.90;99.90;;;;;;5064055;28;20029;-75
2022/09/15 02:00:34;;;;;;;4.30;1.90;;;14.90;99.90;;;;;;5059200;28;20033;-75
2022/09/15 02:03:12;;;;;;;6.53;2.00;;;14.90;99.90;;;;;;5061938;28;20048;-74
2022/09/15 02:05:51;;;;;;;4.07;1.88;;;14.90;99.90;;;;;;5068002;28;20031;-74
2022/09/15 02:08:33;;;;;;;5.75;1.73;;;14.90;99.90;;;;;;5068034;28;20094;-74
2022/09/15 02:11:03;;;;;;;5.00;1.60;;;14.80;99.90;;;;;;5064634;28;20025;-74
2022/09/15 02:14:10;;;;;;;3.22;1.50;;;14.80;99.90;;;;;;5063290;28;20052;-74
2022/09/15 02:16:39;;;;;;;2.88;1.45;;;14.80;99.90;;;;;;5059774;28;20035;-74
2022/09/15 02:19:32;;;;;;;4.28;2.10;;;14.80;99.90;;;;;;5061913;28;20025;-74
2022/09/15 02:22:22;;;;;;;10.20;2.42;;;14.80;99.90;;;;;;5064087;28;20036;-74
2022/09/15 02:25:06;;;;;;;4.20;1.70;;;14.80;99.90;;;;;;5062356;28;20032;-74
2022/09/15 02:27:43;;;;;;;5.45;2.00;;;14.80;99.90;;;;;;5065329;28;20032;-74
2022/09/15 02:30:13;;;;;;;6.47;2.15;;;14.80;99.90;;;;;;5058579;28;20038;-74
2022/09/15 02:32:46;;;;;;;2.92;1.50;;;14.80;99.90;;;;;;5057954;28;20039;-74
2022/09/15 02:35:14;;;;;;;4.47;2.08;;;14.80;99.90;;;;;;5059549;28;20036;-74
2022/09/15 02:37:40;;;;;;;3.58;2.22;;;14.70;99.90;;;;;;5063267;28;20028;-74
2022/09/15 02:40:07;;;;;;;6.88;1.83;;;14.70;99.90;;;;;;5067219;28;20340;-74
2022/09/15 02:42:33;;;;;;;5.72;1.95;;;14.70;99.90;;;;;;5065643;28;20107;-74
2022/09/15 02:45:00;;;;;;;7.43;2.05;;;14.70;99.90;;;;;;5064395;28;20685;-74
2022/09/15 02:47:30;;;;;;;6.38;1.95;;;14.70;99.90;;;;;;5059633;28;20107;-75
2022/09/15 02:49:56;;;;;;;7.05;2.60;;;14.70;99.90;;;;;;5045009;28;20484;-74
2022/09/15 02:52:22;;;;;;;5.68;2.15;;;14.70;99.90;;;;;;5041661;28;20029;-74
2022/09/15 02:54:49;;;;;;;7.65;2.03;;;14.70;99.90;;;;;;5057648;28;20016;-73
2022/09/15 02:57:15;;;;;;;4.15;1.67;;;14.70;99.90;;;;;;5062194;28;20024;-74
2022/09/15 03:02:25;;;;;;;4.38;1.52;;;14.70;99.90;;;;;;5064315;28;20040;-74
2022/09/15 03:04:53;;;;;;;6.25;2.08;;;14.70;99.90;;;;;;5063283;28;20040;-75
2022/09/15 03:07:19;;;;;;;7.82;1.70;;;14.70;99.90;;;;;;5062898;28;20036;-74
2022/09/15 03:09:44;;;;;;;8.63;1.98;;;14.70;99.90;;;;;;5064292;28;20021;-75
2022/09/15 03:12:10;;;;;;;5.82;2.05;;;14.70;99.90;;;;;;5064845;28;20029;-74
2022/09/15 03:14:37;;;;;;;4.53;1.60;;;14.70;99.90;;;;;;5060613;28;20751;-73
2022/09/15 03:17:02;;;;;;;7.80;2.03;;;14.60;99.90;;;;;;5060465;28;20024;-73
2022/09/15 03:19:29;;;;;;;7.10;2.33;;;14.60;99.90;;;;;;5065381;28;20546;-73
2022/09/15 03:21:54;;;;;;;6.43;2.30;;;14.60;99.90;;;;;;5061247;28;20017;-73
2022/09/15 03:24:21;;;;;;;5.22;1.60;;;14.60;99.90;;;;;;5063088;28;20024;-74
2022/09/15 03:26:47;;;;;;;4.32;1.60;;;14.50;99.90;;;;;;5062740;28;20071;-74
2022/09/15 03:29:12;;;;;;;7.15;2.00;;;14.60;99.90;;;;;;5065965;28;20056;-74
2022/09/15 03:31:38;;;;;;;8.75;2.30;;;14.60;99.90;;;;;;5062172;28;20468;-74
2022/09/15 03:34:04;;;;;;;7.95;2.10;;;14.60;99.90;;;;;;5065858;28;20417;-74
2022/09/15 03:36:30;;;;;;;5.15;2.00;;;14.60;99.90;;;;;;5064924;28;21720;-74
2022/09/15 03:38:57;;;;;;;8.27;2.15;;;14.60;99.90;;;;;;5066597;28;20025;-74
2022/09/15 03:41:23;;;;;;;5.32;1.88;;;14.60;99.90;;;;;;5065048;28;20161;-74
2022/09/15 03:43:49;;;;;;;6.80;1.98;;;14.60;99.90;;;;;;5086392;28;20036;-74
2022/09/15 03:46:15;;;;;;;4.43;2.20;;;14.60;99.90;;;;;;5067291;28;20408;-74
2022/09/15 03:48:40;;;;;;;5.10;2.10;;;14.50;99.90;;;;;;5051197;28;20554;-73
2022/09/15 03:51:09;;;;;;;10.25;2.10;;;14.50;99.90;;;;;;5061981;28;20548;-73
2022/09/15 03:53:37;;;;;;;9.15;2.00;;;14.50;99.90;;;;;;5068374;28;20029;-73
2022/09/15 03:56:30;;;;;;;5.10;1.83;;;14.40;99.90;;;;;;5068398;28;20040;-73
2022/09/15 03:58:57;;;;;;;4.10;1.80;;;14.40;99.90;;;;;;5065755;28;20104;-75
2022/09/15 04:01:23;;;;;;;7.22;1.92;;;14.40;99.90;;;;;;5068343;28;20091;-74
2022/09/15 04:03:49;;;;;;;5.78;1.70;;;14.40;99.90;;;;;;5048128;28;20029;-74
2022/09/15 04:06:16;;;;;;;4.93;1.70;;;14.40;99.90;;;;;;5068281;28;20108;-74
2022/09/15 04:08:42;;;;;;;4.45;1.50;;;14.40;99.90;;;;;;5063643;28;20023;-73
2022/09/15 04:11:09;;;;;;;4.70;1.67;;;14.40;99.90;;;;;;5064317;28;20486;-75
2022/09/15 04:13:36;;;;;;;3.28;1.40;;;14.40;99.90;;;;;;5049275;28;20529;-74
2022/09/15 04:16:05;;;;;;;4.85;1.80;;;14.40;99.90;;;;;;5069826;28;20032;-74
2022/09/15 04:18:32;;;;;;;6.47;1.80;;;14.40;99.90;;;;;;5066343;28;20046;-74
2022/09/15 04:21:10;;;;;;;5.85;2.08;;;14.40;99.90;;;;;;5068343;28;20048;-74
2022/09/15 04:23:36;;;;;;;7.07;2.05;;;14.40;99.90;;;;;;5063404;28;20038;-75
2022/09/15 04:26:05;;;;;;;5.72;1.70;;;14.40;99.90;;;;;;5065268;28;20041;-74
2022/09/15 04:28:33;;;;;;;11.20;2.40;;;14.40;99.90;;;;;;5067262;28;20017;-74
2022/09/15 04:31:08;;;;;;;6.40;1.98;;;14.40;99.90;;;;;;5066221;28;20409;-74
2022/09/15 04:33:34;;;;;;;4.20;1.45;;;14.40;99.90;;;;;;5064141;28;20031;-73
2022/09/15 04:36:05;;;;;;;7.28;2.08;;;14.40;99.90;;;;;;5064631;28;20037;-75
2022/09/15 04:38:31;;;;;;;7.80;1.67;;;14.40;99.90;;;;;;5066008;28;20028;-74
2022/09/15 04:40:57;;;;;;;6.32;1.80;;;14.40;99.90;;;;;;5064960;28;20020;-73
2022/09/15 04:43:24;;;;;;;8.20;1.65;;;14.40;99.90;;;;;;5064253;28;20068;-73
2022/09/15 04:45:50;;;;;;;9.07;2.47;;;14.40;99.90;;;;;;5066391;28;20465;-74
2022/09/15 04:48:16;;;;;;;8.00;1.95;;;14.50;99.90;;;;;;5067420;28;20070;-75
2022/09/15 04:50:43;;;;;;;5.05;1.75;;;14.40;99.90;;;;;;5065087;28;20033;-74
2022/09/15 04:53:09;;;;;;;7.28;1.75;;;14.40;99.90;;;;;;5065535;28;20451;-75
2022/09/15 04:55:35;;;;;;;10.23;1.92;;;14.40;99.90;;;;;;5066348;28;20070;-73
2022/09/15 04:58:02;;;;;;;9.45;1.65;;;14.40;99.90;;;;;;5061565;28;20182;-73
2022/09/15 05:00:29;;;;;;;5.93;1.52;;;14.50;99.90;;;;;;5065924;28;20036;-73
2022/09/15 05:02:55;;;;;;;5.68;2.13;;;14.40;99.90;;;;;;5060403;28;20040;-73
2022/09/15 05:05:21;;;;;;;8.10;2.00;;;14.40;99.90;;;;;;5060208;28;20028;-73
2022/09/15 05:07:47;;;;;;;4.93;1.60;;;14.40;99.90;;;;;;5060274;28;20092;-73
2022/09/15 05:10:13;;;;;;;6.70;1.60;;;14.40;99.90;;;;;;5064926;28;20032;-73
2022/09/15 05:12:39;;;;;;;11.30;2.03;;;14.40;99.90;;;;;;5060643;28;20060;-73
2022/09/15 05:15:05;;;;;;;6.80;1.45;;;14.40;99.90;;;;;;5062144;28;20035;-73
2022/09/15 05:17:32;;;;;;;4.38;1.63;;;14.40;99.90;;;;;;5063308;28;20119;-73
2022/09/15 05:19:58;;;;;;;6.15;1.83;;;14.40;99.90;;;;;;5066418;28;20498;-75
2022/09/15 05:22:25;;;;;;;6.82;1.63;;;14.50;99.90;;;;;;5061941;28;20119;-73
2022/09/15 05:24:50;;;;;;;6.30;1.65;;;14.50;99.90;;;;;;5063238;28;20029;-73
2022/09/15 05:27:16;;;;;;;4.38;1.38;;;14.40;99.90;;;;;;5062473;28;20025;-75
2022/09/15 05:29:42;;;;;;;7.03;1.55;;;14.50;99.90;;;;;;5068300;28;20054;-75
2022/09/15 05:32:08;;;;;;;7.20;1.73;;;14.50;99.90;;;;;;5060983;28;20439;-75
2022/09/15 05:34:34;;;;;;;5.10;1.50;;;14.50;99.90;;;;;;5062291;28;20502;-77
2022/09/15 05:37:00;;;;;;;6.22;1.25;;;14.50;99.90;;;;;;5062194;28;20036;-74
2022/09/15 05:39:26;;;;;;;6.05;1.50;;;14.50;99.90;;;;;;5063657;28;20122;-74
2022/09/15 05:41:52;;;;;;;8.13;1.52;;;14.50;99.90;;;;;;5058676;28;20377;-73
2022/09/15 05:44:20;;;;;;;4.18;1.00;;;14.50;99.90;;;;;;5079412;28;20058;-75
2022/09/15 05:46:47;;;;;;;5.10;1.60;;;14.50;99.90;;;;;;5057735;28;20556;-75
2022/09/15 05:49:12;;;;;;;6.07;1.58;;;14.50;99.90;;;;;;5041104;28;20021;-69
2022/09/15 05:51:38;;;;;;;6.90;1.65;;;14.70;99.90;;;;;;5064897;28;20021;-70
2022/09/15 05:54:05;;;;;;;8.00;1.30;;;14.60;99.90;;;;;;5058714;28;20731;-70
2022/09/15 05:56:30;;;;;;;3.42;1.65;;;14.50;99.90;;;;;;5058376;28;20032;-70
2022/09/15 05:58:56;;;;;;;7.10;2.08;;;14.50;99.90;;;;;;5061316;28;20111;-71
2022/09/15 06:01:26;;;;;;;9.82;2.70;;;14.40;99.90;;;;;;5062932;28;20512;-70
2022/09/15 06:03:53;;;;;;;6.00;1.73;;;14.40;99.90;;;;;;5063740;28;20089;-69
2022/09/15 06:06:20;;;;;;;11.30;1.77;;;14.40;99.90;;;;;;5055566;28;20037;-70
2022/09/15 06:08:48;;;;;;;3.67;1.33;;;14.40;99.90;;;;;;5060947;28;20042;-75
2022/09/15 06:11:19;;;;;;;6.65;1.65;;;14.40;99.90;;;;;;5053960;28;21160;-75
2022/09/15 06:13:46;;;;;;;6.70;1.50;;;14.40;99.90;;;;;;5038817;28;20385;-73
2022/09/15 06:16:23;;;;;;;7.03;1.90;;;14.40;99.90;;;;;;5054593;28;20055;-73
2022/09/15 06:18:50;;;;;;;7.00;1.90;;;14.40;99.90;;;;;;5064914;28;20197;-75
2022/09/15 06:21:23;;;;;;;7.53;2.13;;;14.40;99.90;;;;;;5062595;28;20040;-75
2022/09/15 06:23:58;;;;;;;5.68;1.80;;;14.30;99.90;;;;;;5067006;28;20150;-77
2022/09/15 06:26:25;;;;;;;8.98;3.25;;;14.40;99.90;;;;;;5060974;28;20029;-76
2022/09/15 06:28:56;;;;;;;7.45;2.00;;;14.50;99.90;;;;;;5061221;28;20055;-76
2022/09/15 06:31:23;;;;;;;;;;;14.50;99.90;;;;;;5059500;28;20427;-76
2022/09/15 06:33:52;;;;;;;5.25;1.60;;;14.60;99.90;;;;;;5064578;28;19920;-78
2022/09/15 06:36:20;;;;;;;7.10;1.70;;;14.60;99.90;;;;;;5061461;28;20059;-76
2022/09/15 06:38:46;;;;;;;4.60;1.48;;;14.70;99.90;;;;;;5051922;28;20085;-77
2022/09/15 06:41:13;;;;;;;9.35;1.75;;;14.70;99.90;;;;;;5071912;28;20051;-75
2022/09/15 06:43:39;;;;;;;8.80;1.55;;;14.70;99.90;;;;;;5066951;28;20028;-77
2022/09/15 06:46:13;;;;;;;5.57;1.40;;;14.60;99.90;;;;;;5067704;28;20093;-75
2022/09/15 06:48:40;;;;;;;10.20;1.33;;;14.50;99.90;;;;;;5041702;28;20052;-75
2022/09/15 06:51:10;;;;;;;12.30;2.20;;;14.50;99.90;;;;;;5061022;28;20017;-75
2022/09/15 06:53:37;;;;;;;10.98;1.90;;;14.50;99.90;;;;;;5065395;28;20507;-75
2022/09/15 06:56:09;;;;;;;9.85;2.13;;;14.60;99.90;;;;;;5081128;28;20078;-77
2022/09/15 06:58:37;;;;;;;14.18;2.15;;;14.50;99.90;;;;;;5058487;28;20025;-74
2022/09/15 07:01:17;;;;;;;8.75;1.50;;;14.50;99.90;;;;;;5058053;28;20870;-73
2022/09/15 07:03:43;;;;;;;7.60;2.00;;;14.60;99.90;;;;;;5048390;28;20040;-74
2022/09/15 07:06:11;;;;;;;6.90;1.63;;;14.60;99.90;;;;;;5066089;28;20028;-75
2022/09/15 07:08:37;;;;;;;8.32;1.83;;;14.60;99.90;;;;;;5065530;28;20024;-73
2022/09/15 07:11:03;;;;;;;5.43;1.33;;;14.70;99.90;;;;;;5070673;28;20055;-73
2022/09/15 07:13:29;;;;;;;6.88;1.50;;;14.80;99.90;;;;;;5065854;28;20135;-74
2022/09/15 07:15:57;;;;;;;9.05;1.92;;;14.90;99.90;;;;;;5068013;28;20088;-73
2022/09/15 07:18:24;;;;;;;6.55;1.40;;;14.90;99.90;;;;;;5070141;28;20032;-73
2022/09/15 07:20:50;;;;;;;8.30;1.25;;;14.90;99.90;;;;;;5067911;28;20142;-73
2022/09/15 07:23:17;;;;;;;8.98;1.85;;;15.00;99.90;;;;;;5069397;28;20029;-74
2022/09/15 07:25:43;;;;;;;6.72;1.38;;;15.00;99.90;;;;;;5066897;28;20021;-72
2022/09/15 07:28:13;;;;;;;7.45;1.40;;;15.10;99.90;;;;;;5074845;28;20228;-72
2022/09/15 07:30:40;;;;;;;8.10;1.65;;;15.00;99.90;;;;;;5060104;28;20475;-74
2022/09/15 07:33:07;;;;;;;8.25;1.55;;;15.00;99.90;;;;;;5063677;28;20486;-72
2022/09/15 07:35:33;;;;;;;5.65;1.30;;;15.00;99.90;;;;;;5063145;28;20028;-73
2022/09/15 07:37:59;;;;;;;8.23;1.42;;;15.00;99.90;;;;;;5066006;28;20071;-74
2022/09/15 07:40:26;;;;;;;5.82;1.77;;;14.90;99.90;;;;;;5047699;28;20230;-75
2022/09/15 07:42:52;;;;;;;5.20;1.45;;;14.90;99.90;;;;;;5062992;28;20031;-74
2022/09/15 07:45:18;;;;;;;6.18;1.30;;;14.90;99.90;;;;;;5061441;28;20036;-74
2022/09/15 07:47:44;;;;;;;9.70;1.98;;;14.80;99.90;;;;;;5060636;28;20364;-72
2022/09/15 07:50:10;;;;;;;10.65;1.83;;;14.80;99.90;;;;;;5041135;28;20021;-73
2022/09/15 07:52:35;;;;;;;8.20;1.83;;;14.80;99.90;;;;;;5051385;28;20032;-73
2022/09/15 07:55:01;;;;;;;5.15;1.40;;;14.80;99.90;;;;;;5068144;28;20509;-73
2022/09/15 07:57:27;;;;;;;12.60;1.98;;;14.80;99.90;;;;;;5065181;28;20518;-72
2022/09/15 07:59:53;;;;;;;8.80;1.50;;;14.80;99.90;;;;;;5085318;28;20024;-74
2022/09/15 08:02:20;;;;;;;7.35;1.45;;;14.90;99.90;;;;;;5051551;28;20174;-74
2022/09/15 08:04:46;;;;;;;6.47;1.58;;;15.00;99.90;;;;;;5051484;28;20032;-74
2022/09/15 08:07:12;;;;;;;4.15;1.50;;;15.00;99.90;;;;;;5070122;28;20025;-74
2022/09/15 08:09:39;;;;;;;8.23;1.48;;;15.00;99.90;;;;;;5073074;28;20025;-75
2022/09/15 08:12:06;;;;;;;10.48;1.73;;;15.10;99.90;;;;;;5068774;28;20074;-73
2022/09/15 08:14:32;;;;;;;8.35;1.92;;;15.20;99.90;;;;;;5073264;28;20170;-73
2022/09/15 08:17:03;;;;;;;10.05;1.95;;;15.20;99.90;;;;;;5071764;28;20025;-73
2022/09/15 08:19:30;;;;;;;8.10;1.70;;;15.20;99.90;;;;;;5069691;28;20032;-74
2022/09/15 08:21:56;;;;;;;8.05;1.27;;;15.30;99.90;;;;;;5068073;28;20035;-73
2022/09/15 08:24:22;;;;;;;12.68;1.88;;;15.40;99.90;;;;;;5068092;28;20480;-74
2022/09/15 08:26:49;;;;;;;9.20;1.95;;;15.40;99.90;;;;;;5066706;28;20042;-73
2022/09/15 08:29:16;;;;;;;5.70;1.55;;;15.30;99.90;;;;;;5043372;28;20071;-73
2022/09/15 08:31:43;;;;;;;8.00;1.50;;;15.40;99.90;;;;;;5043844;28;20025;-73
2022/09/15 08:34:13;;;;;;;663.78;440.00;;;15.40;99.90;;;;;;5063234;28;20061;-73
2022/09/15 08:36:39;;;;;;;132.60;73.15;;;15.40;99.90;;;;;;5062475;28;20035;-74
2022/09/15 08:39:05;;;;;;;65.45;42.10;;;15.40;99.90;;;;;;5068011;28;20446;-73
2022/09/15 08:41:34;;;;;;;11.95;4.45;;;15.40;99.90;;;;;;5060039;28;20033;-72
2022/09/15 08:44:17;;;;;;;8.20;2.03;;;15.50;99.90;;;;;;5063782;28;20457;-73
2022/09/15 08:46:49;;;;;;;3.42;1.23;;;15.50;99.90;;;;;;5065528;28;20140;-76
2022/09/15 08:49:23;;;;;;;9.30;1.30;;;15.50;99.90;;;;;;5065622;28;20066;-74
2022/09/15 08:51:51;;;;;;;6.38;1.15;;;15.60;99.90;;;;;;5068037;28;20127;-74
2022/09/15 08:54:23;;;;;;;6.93;1.90;;;15.70;99.90;;;;;;5068600;28;20179;-73
2022/09/15 08:56:49;;;;;;;5.20;1.48;;;15.80;99.90;;;;;;5066117;28;20483;-74
2022/09/15 08:59:17;;;;;;;6.88;1.40;;;15.80;99.90;;;;;;5065425;28;20024;-74
2022/09/15 09:01:55;;;;;;;7.20;1.58;;;15.90;99.90;;;;;;5064603;28;20041;-75
2022/09/15 09:04:40;;;;;;;9.77;1.80;;;16.00;99.90;;;;;;5041725;28;20037;-75
2022/09/15 09:07:21;;;;;;;7.88;1.70;;;16.00;99.90;;;;;;5066147;28;20374;-75
2022/09/15 09:10:00;;;;;;;7.82;1.55;;;16.10;99.90;;;;;;5079569;28;20349;-75
2022/09/15 09:12:35;;;;;;;7.63;1.65;;;16.20;99.90;;;;;;5065754;28;20025;-75
2022/09/15 09:15:24;;;;;;;6.28;1.20;;;16.20;99.90;;;;;;5045504;28;20038;-74
2022/09/15 09:18:31;;;;;;;6.70;1.17;;;16.20;99.90;;;;;;5054276;28;20396;-73
2022/09/15 09:21:21;;;;;;;5.97;1.33;;;16.30;99.90;;;;;;5008985;28;20026;-75
2022/09/15 09:24:12;;;;;;;12.50;1.70;;;16.40;99.90;;;;;;5020014;28;20060;-73
2022/09/15 09:26:38;;;;;;;4.95;1.15;;;16.50;99.90;;;;;;4973787;28;20074;-73
2022/09/15 09:29:12;;;;;;;7.82;1.30;;;16.50;99.90;;;;;;5005317;28;20112;-73
2022/09/15 09:31:39;;;;;;;9.52;2.05;;;16.70;99.90;;;;;;5024835;28;20130;-74
2022/09/15 09:34:19;;;;;;;9.65;1.98;;;16.90;99.90;;;;;;5009190;28;20040;-73
2022/09/15 09:36:51;;;;;;;6.50;1.33;;;16.90;99.90;;;;;;5026167;28;20061;-74
2022/09/15 09:39:17;;;;;;;5.45;1.05;;;16.90;99.90;;;;;;5021369;28;20461;-74
2022/09/15 09:41:43;;;;;;;10.38;1.60;;;16.70;99.90;;;;;;5028824;28;20026;-74
2022/09/15 09:44:12;;;;;;;6.28;2.05;;;16.60;99.90;;;;;;5005402;28;20484;-74
2022/09/15 09:46:38;;;;;;;6.63;1.33;;;16.40;99.90;;;;;;5010020;28;20280;-74
2022/09/15 09:49:12;;;;;;;3.53;1.25;;;16.20;99.90;;;;;;5017972;28;20438;-73
2022/09/15 09:51:47;;;;;;;5.60;1.50;;;16.00;99.90;;;;;;5042615;28;20532;-74
2022/09/15 09:54:19;;;;;;;5.47;1.35;;;15.90;99.90;;;;;;5066201;28;20086;-74
2022/09/15 09:56:50;;;;;;;5.50;0.77;;;15.90;99.90;;;;;;5065553;28;20028;-73
2022/09/15 09:59:44;;;;;;;6.30;0.80;;;15.80;99.90;;;;;;5062178;28;20155;-73
2022/09/15 10:02:10;;;;;;;8.82;1.30;;;15.70;99.90;;;;;;5066202;28;20044;-75
2022/09/15 10:04:37;;;;;;;5.47;1.20;;;15.70;99.90;;;;;;5070149;28;20025;-74
2022/09/15 10:07:03;;;;;;;5.07;1.48;;;15.80;99.90;;;;;;5068152;28;20082;-74
2022/09/15 10:09:30;;;;;;;2.95;0.88;;;16.00;99.90;;;;;;5063903;28;20027;-74
2022/09/15 10:12:00;;;;;;;4.00;1.15;;;16.10;99.90;;;;;;5068416;28;20032;-74
2022/09/15 10:14:28;;;;;;;9.07;1.42;;;16.20;99.90;;;;;;5047446;28;20024;-74
2022/09/15 10:16:57;;;;;;;8.93;1.23;;;16.30;99.90;;;;;;5069123;28;20028;-74
2022/09/15 10:19:23;;;;;;;5.93;1.30;;;16.40;99.90;;;;;;5064748;28;20029;-74
2022/09/15 10:21:49;;;;;;;5.90;1.45;;;16.50;99.90;;;;;;5066662;28;20380;-74
2022/09/15 10:24:33;;;;;;;5.72;1.17;;;16.60;99.90;;;;;;5045901;28;21011;-74
2022/09/15 10:27:30;;;;;;;6.25;1.42;;;16.90;99.90;;;;;;5066158;28;20124;-74
2022/09/15 10:30:11;;;;;;;4.53;1.15;;;17.00;99.90;;;;;;5037873;28;20561;-74
2022/09/15 10:32:38;;;;;;;3.33;0.90;;;17.00;99.90;;;;;;5065054;28;20036;-74
2022/09/15 10:35:03;;;;;;;11.38;1.23;;;17.00;99.90;;;;;;5050451;28;20029;-74
2022/09/15 10:37:31;;;;;;;3.38;0.90;;;16.90;99.90;;;;;;5062408;28;20040;-73
2022/09/15 10:39:59;;;;;;;3.45;0.95;;;17.00;99.90;;;;;;5064362;28;20020;-73
2022/09/15 10:42:51;;;;;;;7.55;1.20;;;17.00;99.90;;;;;;5049298;28;20397;-73
2022/09/15 10:45:33;;;;;;;5.38;1.23;;;16.80;99.90;;;;;;5068863;28;20066;-75
2022/09/15 10:48:07;;;;;;;;;;;16.90;99.90;;;;;;5072390;28;20179;-74
2022/09/15 10:50:39;;;;;;;5.28;0.98;;;16.90;99.90;;;;;;5068070;28;19953;-75
2022/09/15 10:53:18;;;;;;;3.40;0.88;;;16.90;99.90;;;;;;5049918;28;20058;-75
2022/09/15 10:56:30;;;;;;;6.60;1.38;;;17.10;99.90;;;;;;5068375;28;20384;-74
2022/09/15 10:58:59;;;;;;;;;;;17.50;99.90;;;;;;5002142;28;20030;-74
2022/09/15 11:01:31;;;;;;;4.40;1.45;;;18.70;99.90;;;;;;5006994;28;19910;-74
2022/09/15 11:04:27;;;;;;;6.00;1.23;;;19.80;99.90;;;;;;5005801;28;20038;-74
2022/09/15 11:07:31;;;;;;;4.07;1.10;;;21.30;98.10;;;;;;4984415;28;20044;-74
2022/09/15 11:10:17;;;;;;;4.13;0.98;;;22.60;92.00;;;;;;5006886;28;20041;-74
2022/09/15 11:12:59;;;;;;;5.13;1.27;;;23.60;86.90;;;;;;4988664;28;20521;-75
2022/09/15 11:15:53;;;;;;;3.53;1.15;;;24.70;80.60;;;;;;4975404;28;20038;-75
2022/09/15 11:18:30;;;;;;;4.25;0.90;;;25.20;73.60;;;;;;5009577;28;20026;-75
2022/09/15 11:21:21;;;;;;;3.22;1.10;;;24.90;73.20;;;;;;4988405;28;20105;-74
2022/09/15 11:24:24;;;;;;;3.38;0.90;;;24.80;70.40;;;;;;5009256;28;20117;-74
2022/09/15 11:27:14;;;;;;;2.72;1.00;;;23.50;72.40;;;;;;5005696;28;20060;-75
2022/09/15 11:30:17;;;;;;;6.95;1.40;;;22.50;74.10;;;;;;5041088;28;20047;-74
2022/09/15 11:32:49;;;;;;;5.15;1.08;;;21.30;78.20;;;;;;5036933;28;20036;-73
2022/09/15 11:35:33;;;;;;;2.90;0.85;;;20.80;81.50;;;;;;5066778;28;20029;-73
2022/09/15 11:38:12;;;;;;;3.95;0.90;;;20.30;86.30;;;;;;5071101;28;20715;-76
2022/09/15 11:40:53;;;;;;;4.55;1.00;;;19.40;91.70;;;;;;5065823;28;20025;-74
2022/09/15 11:43:27;;;;;;;4.15;1.00;;;18.80;94.50;;;;;;5069178;28;20029;-73
2022/09/15 11:45:56;;;;;;;4.72;1.08;;;18.40;96.50;;;;;;5070913;28;20104;-74
2022/09/15 11:48:43;;;;;;;14.00;1.60;;;18.10;98.20;;;;;;5054980;28;20024;-74
2022/09/15 11:51:12;;;;;;;8.57;1.38;;;18.20;99.50;;;;;;5076283;28;20020;-74
2022/09/15 11:53:52;;;;;;;4.22;1.55;;;18.30;99.60;;;;;;5074248;28;20036;-74
2022/09/15 11:56:25;;;;;;;8.75;1.95;;;18.40;99.10;;;;;;5068949;28;20708;-74
2022/09/15 11:59:06;;;;;;;6.72;1.40;;;18.40;98.70;;;;;;5068769;28;20024;-74
2022/09/15 12:01:47;;;;;;;;;;;18.60;98.80;;;;;;5048040;28;20556;-74
2022/09/15 12:04:26;;;;;;;3.50;0.85;;;18.80;98.10;;;;;;5069518;28;19913;-75
2022/09/15 12:07:10;;;;;;;8.90;1.35;;;18.90;98.30;;;;;;5068176;28;20162;-74
2022/09/15 12:09:37;;;;;;;4.07;1.38;;;18.70;98.50;;;;;;5068614;28;20095;-74
2022/09/15 12:12:11;;;;;;;8.93;1.90;;;18.60;99.60;;;;;;5065813;28;20405;-74
2022/09/15 12:14:41;;;;;;;4.82;0.93;;;18.40;99.70;;;;;;5076770;28;20024;-75
2022/09/15 12:17:15;;;;;;;3.13;1.00;;;18.30;99.70;;;;;;5046179;28;20021;-76
2022/09/15 12:20:09;;;;;;;6.70;1.20;;;18.20;99.90;;;;;;5065341;28;20029;-73
2022/09/15 12:22:53;;;;;;;3.97;1.00;;;18.00;99.90;;;;;;5065206;28;20035;-74
2022/09/15 12:25:45;;;;;;;6.55;1.30;;;17.70;99.90;;;;;;5063909;28;20029;-73
2022/09/15 12:28:23;;;;;;;5.22;1.30;;;17.60;99.90;;;;;;5063250;28;20028;-73
2022/09/15 12:31:30;;;;;;;9.68;1.30;;;17.60;99.90;;;;;;5083797;28;20052;-73
2022/09/15 12:33:59;;;;;;;6.30;1.35;;;17.70;99.90;;;;;;5059300;28;20024;-74
2022/09/15 12:36:40;;;;;;;5.13;1.10;;;17.90;99.90;;;;;;5069558;28;20191;-74
2022/09/15 12:39:26;;;;;;;4.93;1.13;;;18.10;99.90;;;;;;5051594;28;20031;-73
2022/09/15 12:42:13;;;;;;;8.48;1.30;;;18.10;99.90;;;;;;5067528;28;20047;-75
2022/09/15 12:44:39;;;;;;;6.95;1.02;;;18.30;99.90;;;;;;5061649;28;20056;-74
2022/09/15 12:47:25;;;;;;;4.53;0.85;;;18.40;99.90;;;;;;5063954;28;20071;-74
2022/09/15 12:49:53;;;;;;;7.20;1.17;;;18.30;99.90;;;;;;5060794;28;20029;-74
2022/09/15 12:52:21;;;;;;;5.28;1.35;;;18.20;99.90;;;;;;5048368;28;20029;-74
2022/09/15 12:54:59;;;;;;;3.25;1.25;;;18.10;99.90;;;;;;5064941;28;20074;-74
2022/09/15 12:57:33;;;;;;;5.30;1.27;;;18.10;99.90;;;;;;5068275;28;20036;-73
2022/09/15 13:00:28;;;;;;;3.42;1.35;;;18.00;99.90;;;;;;5079400;28;20029;-73
2022/09/15 13:02:55;;;;;;;4.85;1.20;;;18.20;99.90;;;;;;5067120;28;20129;-73
2022/09/15 13:05:46;;;;;;;5.25;1.60;;;18.40;99.90;;;;;;5060986;28;20139;-74
2022/09/15 13:08:33;;;;;;;5.53;1.17;;;18.40;99.10;;;;;;5068162;28;20411;-73
2022/09/15 13:11:01;;;;;;;8.20;1.25;;;18.40;98.70;;;;;;5059047;28;20558;-73
2022/09/15 13:13:45;;;;;;;2.58;0.85;;;18.40;99.20;;;;;;5062562;28;20129;-74
2022/09/15 13:16:20;;;;;;;7.07;1.27;;;18.40;99.10;;;;;;5066675;28;20032;-74
2022/09/15 13:18:49;;;;;;;8.13;1.55;;;18.30;98.40;;;;;;5065094;28;20393;-74